SAM676 SEGU-SEGS
Flight info
| Callsign | SAM676 |
|---|---|
| Flight time | 1h 58m |
| Altitude | 34000 |
| Route | ASOSI3A ASOSI UW17 SCV |
| Aircraft | B737/M-SDE2E3FGHIRWXY/LB1 |
Departure
| Time | 2026-04-29 11:01 |
|---|---|
| Airport | José Joaquín de Olmedo International Airport (SEGU) |
Arrival
| Time | 2026-04-29 12:59 |
|---|---|
| Airport | Seymour Galapagos Ecological Airport (SEGS) |
| Time | Latitude | Longitude | Altitude | Speed | Heading |
|---|---|---|---|---|---|
| 2026-04-29 10:07 | -2.15454 | -79.88411 | 27 ft | 0 kts | 346° |
| 2026-04-29 10:52 | -2.15452 | -79.88411 | 27 ft | 1 kts | 351° |
| 2026-04-29 10:52 | -2.15443 | -79.88397 | 27 ft | 4 kts | 83° |
| 2026-04-29 10:52 | -2.15449 | -79.88370 | 27 ft | 3 kts | 109° |
| 2026-04-29 10:53 | -2.15453 | -79.88361 | 27 ft | 3 kts | 110° |
| 2026-04-29 10:53 | -2.15461 | -79.88332 | 27 ft | 6 kts | 91° |
| 2026-04-29 10:53 | -2.15428 | -79.88293 | 27 ft | 9 kts | 31° |
| 2026-04-29 10:53 | -2.15360 | -79.88254 | 26 ft | 13 kts | 30° |
| 2026-04-29 10:54 | -2.15308 | -79.88225 | 27 ft | 4 kts | 30° |
| 2026-04-29 10:54 | -2.15293 | -79.88217 | 27 ft | 1 kts | 19° |
| 2026-04-29 10:54 | -2.15292 | -79.88217 | 27 ft | 0 kts | 18° |
| 2026-04-29 10:55 | -2.15279 | -79.88217 | 27 ft | 6 kts | 351° |
| 2026-04-29 10:55 | -2.15236 | -79.88250 | 27 ft | 9 kts | 339° |
| 2026-04-29 10:55 | -2.15164 | -79.88224 | 28 ft | 15 kts | 30° |
| 2026-04-29 10:55 | -2.15058 | -79.88162 | 28 ft | 19 kts | 30° |
| 2026-04-29 10:56 | -2.14943 | -79.88095 | 28 ft | 19 kts | 30° |
| 2026-04-29 10:56 | -2.14833 | -79.88032 | 28 ft | 18 kts | 30° |
| 2026-04-29 10:56 | -2.14731 | -79.87973 | 28 ft | 16 kts | 29° |
| 2026-04-29 10:56 | -2.14679 | -79.87940 | 28 ft | 5 kts | 43° |
| 2026-04-29 10:57 | -2.14666 | -79.87924 | 27 ft | 3 kts | 59° |
| 2026-04-29 10:57 | -2.14659 | -79.87906 | 27 ft | 3 kts | 69° |
| 2026-04-29 10:57 | -2.14651 | -79.87883 | 27 ft | 1 kts | 70° |
| 2026-04-29 10:57 | -2.14650 | -79.87883 | 27 ft | 0 kts | 70° |
| 2026-04-29 10:59 | -2.14646 | -79.87872 | 27 ft | 5 kts | 70° |
| 2026-04-29 10:59 | -2.14632 | -79.87804 | 27 ft | 14 kts | 90° |
| 2026-04-29 11:00 | -2.14691 | -79.87761 | 26 ft | 10 kts | 210° |
| 2026-04-29 11:00 | -2.14699 | -79.87765 | 26 ft | 0 kts | 207° |
| 2026-04-29 11:00 | -2.14703 | -79.87767 | 26 ft | 6 kts | 207° |
| 2026-04-29 11:01 | -2.14955 | -79.87911 | 28 ft | 78 kts | 210° |
| 2026-04-29 11:01 | -2.15625 | -79.88298 | 27 ft | 141 kts | 211° |
| 2026-04-29 11:01 | -2.16553 | -79.88850 | 361 ft | 165 kts | 211° |
| 2026-04-29 11:01 | -2.17612 | -79.89448 | 838 ft | 185 kts | 210° |
| 2026-04-29 11:02 | -2.18777 | -79.90096 | 1425 ft | 197 kts | 210° |
| 2026-04-29 11:02 | -2.19999 | -79.90775 | 2100 ft | 203 kts | 209° |
| 2026-04-29 11:02 | -2.21086 | -79.91669 | 2760 ft | 207 kts | 241° |
| 2026-04-29 11:02 | -2.21395 | -79.93134 | 3056 ft | 232 kts | 272° |
| 2026-04-29 11:03 | -2.21268 | -79.94836 | 3325 ft | 260 kts | 275° |
| 2026-04-29 11:03 | -2.21114 | -79.96677 | 3996 ft | 270 kts | 274° |
| 2026-04-29 11:03 | -2.20969 | -79.98562 | 4857 ft | 273 kts | 274° |
| 2026-04-29 11:03 | -2.20837 | -80.00475 | 5682 ft | 279 kts | 274° |
| 2026-04-29 11:04 | -2.20718 | -80.02420 | 6533 ft | 282 kts | 274° |
| 2026-04-29 11:04 | -2.20608 | -80.04396 | 7369 ft | 287 kts | 273° |
| 2026-04-29 11:04 | -2.20503 | -80.06407 | 8232 ft | 292 kts | 273° |
| 2026-04-29 11:04 | -2.20403 | -80.08441 | 9178 ft | 294 kts | 273° |
| 2026-04-29 11:05 | -2.20305 | -80.10500 | 10058 ft | 299 kts | 273° |
| 2026-04-29 11:05 | -2.20206 | -80.12640 | 10476 ft | 322 kts | 272° |
| 2026-04-29 11:05 | -2.20100 | -80.14961 | 10750 ft | 345 kts | 272° |
| 2026-04-29 11:05 | -2.19990 | -80.17399 | 11412 ft | 354 kts | 273° |
| 2026-04-29 11:06 | -2.19881 | -80.19834 | 12186 ft | 358 kts | 273° |
| 2026-04-29 11:06 | -2.19769 | -80.22351 | 13018 ft | 362 kts | 273° |
| 2026-04-29 11:06 | -2.19656 | -80.24887 | 13792 ft | 367 kts | 273° |
| 2026-04-29 11:06 | -2.19542 | -80.27460 | 14472 ft | 372 kts | 273° |
| 2026-04-29 11:07 | -2.19426 | -80.30058 | 15190 ft | 377 kts | 273° |
| 2026-04-29 11:07 | -2.19309 | -80.32690 | 15923 ft | 381 kts | 273° |
| 2026-04-29 11:07 | -2.19191 | -80.35352 | 16638 ft | 385 kts | 273° |
| 2026-04-29 11:07 | -2.19071 | -80.38043 | 17337 ft | 390 kts | 273° |
| 2026-04-29 11:08 | -2.18951 | -80.40727 | 18017 ft | 394 kts | 273° |
| 2026-04-29 11:08 | -2.18828 | -80.43484 | 18628 ft | 399 kts | 273° |
| 2026-04-29 11:08 | -2.18703 | -80.46298 | 19252 ft | 402 kts | 273° |
| 2026-04-29 11:08 | -2.18578 | -80.49099 | 19876 ft | 405 kts | 273° |
| 2026-04-29 11:09 | -2.18454 | -80.51882 | 20467 ft | 408 kts | 272° |
| 2026-04-29 11:09 | -2.18408 | -80.54732 | 21042 ft | 412 kts | 268° |
| 2026-04-29 11:09 | -2.18599 | -80.57606 | 21596 ft | 416 kts | 264° |
| 2026-04-29 11:09 | -2.18891 | -80.60497 | 22177 ft | 419 kts | 263° |
| 2026-04-29 11:10 | -2.19204 | -80.63410 | 22726 ft | 422 kts | 263° |
| 2026-04-29 11:10 | -2.19506 | -80.66345 | 23246 ft | 427 kts | 264° |
| 2026-04-29 11:10 | -2.19791 | -80.69306 | 23737 ft | 429 kts | 264° |
| 2026-04-29 11:10 | -2.20061 | -80.72284 | 24217 ft | 431 kts | 264° |
| 2026-04-29 11:11 | -2.20323 | -80.75279 | 24636 ft | 434 kts | 265° |
| 2026-04-29 11:11 | -2.20583 | -80.78305 | 25033 ft | 438 kts | 265° |
| 2026-04-29 11:11 | -2.20844 | -80.81345 | 25487 ft | 440 kts | 265° |
| 2026-04-29 11:11 | -2.21102 | -80.84355 | 25936 ft | 441 kts | 265° |
| 2026-04-29 11:12 | -2.21366 | -80.87426 | 26321 ft | 444 kts | 265° |
| 2026-04-29 11:12 | -2.21632 | -80.90517 | 26672 ft | 448 kts | 265° |
| 2026-04-29 11:12 | -2.21900 | -80.93623 | 27206 ft | 446 kts | 265° |
| 2026-04-29 11:12 | -2.22079 | -80.96725 | 27682 ft | 447 kts | 270° |
| 2026-04-29 11:13 | -2.21809 | -80.99832 | 28004 ft | 451 kts | 279° |
| 2026-04-29 11:13 | -2.21237 | -81.02921 | 28347 ft | 454 kts | 281° |
| 2026-04-29 11:13 | -2.20613 | -81.06022 | 28702 ft | 456 kts | 282° |
| 2026-04-29 11:13 | -2.19977 | -81.09137 | 29079 ft | 458 kts | 282° |
| 2026-04-29 11:14 | -2.19347 | -81.12263 | 29438 ft | 460 kts | 281° |
| 2026-04-29 11:14 | -2.18728 | -81.15400 | 29769 ft | 462 kts | 281° |
| 2026-04-29 11:14 | -2.18115 | -81.18561 | 30077 ft | 464 kts | 281° |
| 2026-04-29 11:14 | -2.17508 | -81.21735 | 30356 ft | 465 kts | 281° |
| 2026-04-29 11:15 | -2.16904 | -81.24913 | 30644 ft | 467 kts | 280° |
| 2026-04-29 11:15 | -2.16299 | -81.28100 | 30980 ft | 466 kts | 280° |
| 2026-04-29 11:15 | -2.15693 | -81.31290 | 31330 ft | 466 kts | 279° |
| 2026-04-29 11:15 | -2.15088 | -81.34468 | 31719 ft | 465 kts | 278° |
| 2026-04-29 11:16 | -2.14485 | -81.37638 | 32150 ft | 464 kts | 278° |
| 2026-04-29 11:16 | -2.13884 | -81.40796 | 32602 ft | 462 kts | 277° |
| 2026-04-29 11:16 | -2.13285 | -81.43943 | 33063 ft | 460 kts | 277° |
| 2026-04-29 11:16 | -2.12687 | -81.47079 | 33514 ft | 458 kts | 277° |
| 2026-04-29 11:17 | -2.12094 | -81.50196 | 33885 ft | 459 kts | 276° |
| 2026-04-29 11:17 | -2.10897 | -81.56483 | 33886 ft | 458 kts | 276° |
| 2026-04-29 11:18 | -2.09713 | -81.62691 | 33889 ft | 456 kts | 276° |
| 2026-04-29 11:18 | -2.08527 | -81.68919 | 33892 ft | 456 kts | 276° |
| 2026-04-29 11:19 | -2.07341 | -81.75142 | 33896 ft | 456 kts | 276° |
| 2026-04-29 11:19 | -2.06153 | -81.81374 | 33894 ft | 456 kts | 276° |
| 2026-04-29 11:20 | -2.04979 | -81.87600 | 33894 ft | 456 kts | 274° |
| 2026-04-29 11:20 | -2.04086 | -81.93872 | 33895 ft | 454 kts | 272° |
| 2026-04-29 11:21 | -2.03307 | -82.00148 | 33896 ft | 455 kts | 272° |
| 2026-04-29 11:21 | -2.02505 | -82.06431 | 33897 ft | 456 kts | 272° |
| 2026-04-29 11:22 | -2.01676 | -82.12717 | 33891 ft | 456 kts | 272° |
| 2026-04-29 11:22 | -2.00839 | -82.19006 | 33894 ft | 456 kts | 272° |
| 2026-04-29 11:23 | -2.00002 | -82.25298 | 33894 ft | 457 kts | 272° |
| 2026-04-29 11:23 | -1.99165 | -82.31594 | 33893 ft | 457 kts | 272° |
| 2026-04-29 11:24 | -1.98333 | -82.37855 | 33894 ft | 457 kts | 272° |
| 2026-04-29 11:24 | -1.97495 | -82.44154 | 33895 ft | 457 kts | 271° |
| 2026-04-29 11:25 | -1.96659 | -82.50442 | 33895 ft | 456 kts | 271° |
| 2026-04-29 11:25 | -1.95823 | -82.56727 | 33896 ft | 456 kts | 271° |
| 2026-04-29 11:26 | -1.94704 | -82.65078 | 33893 ft | 455 kts | 271° |
| 2026-04-29 11:26 | -1.93861 | -82.71349 | 33896 ft | 455 kts | 271° |
| 2026-04-29 11:27 | -1.93019 | -82.77616 | 33898 ft | 455 kts | 271° |
| 2026-04-29 11:27 | -1.92179 | -82.83876 | 33896 ft | 455 kts | 271° |
| 2026-04-29 11:28 | -1.91335 | -82.90159 | 33896 ft | 455 kts | 271° |
| 2026-04-29 11:28 | -1.90492 | -82.96436 | 33894 ft | 456 kts | 271° |
| 2026-04-29 11:29 | -1.89647 | -83.02724 | 33897 ft | 457 kts | 271° |
| 2026-04-29 11:29 | -1.88805 | -83.08989 | 33897 ft | 457 kts | 272° |
| 2026-04-29 11:30 | -1.87960 | -83.15286 | 33906 ft | 463 kts | 272° |
| 2026-04-29 11:30 | -1.87100 | -83.21690 | 33894 ft | 465 kts | 272° |
| 2026-04-29 11:31 | -1.86237 | -83.28088 | 33896 ft | 465 kts | 272° |
| 2026-04-29 11:31 | -1.85370 | -83.34542 | 33905 ft | 471 kts | 272° |
| 2026-04-29 11:32 | -1.84495 | -83.41036 | 33895 ft | 471 kts | 272° |
| 2026-04-29 11:32 | -1.83619 | -83.47532 | 33896 ft | 471 kts | 272° |
| 2026-04-29 11:33 | -1.82754 | -83.53935 | 33898 ft | 466 kts | 272° |
| 2026-04-29 11:33 | -1.81887 | -83.60385 | 33899 ft | 470 kts | 272° |
| 2026-04-29 11:34 | -1.81015 | -83.66868 | 33897 ft | 472 kts | 272° |
| 2026-04-29 11:34 | -1.80138 | -83.73372 | 33896 ft | 472 kts | 272° |
| 2026-04-29 11:35 | -1.79260 | -83.79884 | 33896 ft | 472 kts | 272° |
| 2026-04-29 11:35 | -1.78382 | -83.86389 | 33896 ft | 472 kts | 272° |
| 2026-04-29 11:36 | -1.77506 | -83.92885 | 33893 ft | 471 kts | 272° |
| 2026-04-29 11:36 | -1.76630 | -83.99376 | 33891 ft | 470 kts | 272° |
| 2026-04-29 11:37 | -1.75756 | -84.05851 | 33896 ft | 469 kts | 272° |
| 2026-04-29 11:37 | -1.74884 | -84.12312 | 33890 ft | 468 kts | 272° |
| 2026-04-29 11:38 | -1.74023 | -84.18720 | 33893 ft | 468 kts | 272° |
| 2026-04-29 11:38 | -1.73161 | -84.25164 | 33893 ft | 467 kts | 272° |
| 2026-04-29 11:39 | -1.72299 | -84.31603 | 33894 ft | 467 kts | 272° |
| 2026-04-29 11:39 | -1.71436 | -84.38039 | 33893 ft | 466 kts | 272° |
| 2026-04-29 11:40 | -1.70575 | -84.44465 | 33891 ft | 466 kts | 272° |
| 2026-04-29 11:40 | -1.69714 | -84.50883 | 33891 ft | 466 kts | 272° |
| 2026-04-29 11:41 | -1.68857 | -84.57273 | 33890 ft | 466 kts | 272° |
| 2026-04-29 11:41 | -1.67996 | -84.63695 | 33891 ft | 466 kts | 272° |
| 2026-04-29 11:42 | -1.67133 | -84.70120 | 33896 ft | 466 kts | 273° |
| 2026-04-29 11:42 | -1.66271 | -84.76549 | 33889 ft | 466 kts | 273° |
| 2026-04-29 11:43 | -1.65408 | -84.82974 | 33891 ft | 466 kts | 273° |
| 2026-04-29 11:43 | -1.64551 | -84.89358 | 33891 ft | 466 kts | 273° |
| 2026-04-29 11:44 | -1.63688 | -84.95779 | 33893 ft | 466 kts | 273° |
| 2026-04-29 11:44 | -1.62825 | -85.02203 | 33892 ft | 466 kts | 273° |
| 2026-04-29 11:45 | -1.61962 | -85.08621 | 33894 ft | 466 kts | 274° |
| 2026-04-29 11:45 | -1.61099 | -85.15048 | 33886 ft | 465 kts | 274° |
| 2026-04-29 11:46 | -1.60249 | -85.21414 | 33888 ft | 465 kts | 274° |
| 2026-04-29 11:46 | -1.59395 | -85.27821 | 33887 ft | 465 kts | 274° |
| 2026-04-29 11:47 | -1.58543 | -85.34218 | 33888 ft | 464 kts | 274° |
| 2026-04-29 11:47 | -1.57690 | -85.40617 | 33888 ft | 464 kts | 274° |
| 2026-04-29 11:48 | -1.56838 | -85.47009 | 33892 ft | 464 kts | 274° |
| 2026-04-29 11:48 | -1.55984 | -85.53411 | 33890 ft | 464 kts | 274° |
| 2026-04-29 11:49 | -1.55132 | -85.59794 | 33884 ft | 463 kts | 274° |
| 2026-04-29 11:49 | -1.54285 | -85.66141 | 33886 ft | 463 kts | 274° |
| 2026-04-29 11:50 | -1.53432 | -85.72524 | 33885 ft | 463 kts | 274° |
| 2026-04-29 11:50 | -1.52581 | -85.78900 | 33885 ft | 463 kts | 274° |
| 2026-04-29 11:51 | -1.51730 | -85.85274 | 33888 ft | 463 kts | 274° |
| 2026-04-29 11:51 | -1.50876 | -85.91666 | 33883 ft | 463 kts | 274° |
| 2026-04-29 11:52 | -1.50023 | -85.98047 | 33882 ft | 463 kts | 274° |
| 2026-04-29 11:52 | -1.49170 | -86.04432 | 33882 ft | 463 kts | 274° |
| 2026-04-29 11:53 | -1.48317 | -86.10810 | 33884 ft | 463 kts | 274° |
| 2026-04-29 11:53 | -1.47463 | -86.17197 | 33886 ft | 463 kts | 274° |
| 2026-04-29 11:54 | -1.46615 | -86.23538 | 33883 ft | 463 kts | 275° |
| 2026-04-29 11:54 | -1.45760 | -86.29933 | 33882 ft | 463 kts | 275° |
| 2026-04-29 11:55 | -1.44907 | -86.36305 | 33885 ft | 463 kts | 275° |
| 2026-04-29 11:55 | -1.44052 | -86.42692 | 33885 ft | 463 kts | 275° |
| 2026-04-29 11:56 | -1.43197 | -86.49064 | 33885 ft | 463 kts | 275° |
| 2026-04-29 11:56 | -1.42343 | -86.55433 | 33885 ft | 462 kts | 275° |
| 2026-04-29 11:57 | -1.41495 | -86.61753 | 33891 ft | 462 kts | 275° |
| 2026-04-29 11:57 | -1.40641 | -86.68119 | 33881 ft | 461 kts | 275° |
| 2026-04-29 11:58 | -1.39789 | -86.74466 | 33884 ft | 461 kts | 275° |
| 2026-04-29 11:58 | -1.38939 | -86.80804 | 33885 ft | 460 kts | 275° |
| 2026-04-29 11:59 | -1.38088 | -86.87142 | 33885 ft | 460 kts | 275° |
| 2026-04-29 11:59 | -1.37238 | -86.93475 | 33885 ft | 459 kts | 275° |
| 2026-04-29 12:00 | -1.36388 | -86.99801 | 33890 ft | 459 kts | 275° |
| 2026-04-29 12:00 | -1.35540 | -87.06115 | 33886 ft | 458 kts | 275° |
| 2026-04-29 12:01 | -1.34698 | -87.12382 | 33882 ft | 458 kts | 275° |
| 2026-04-29 12:01 | -1.33851 | -87.18688 | 33882 ft | 457 kts | 275° |
| 2026-04-29 12:02 | -1.33005 | -87.24982 | 33883 ft | 457 kts | 275° |
| 2026-04-29 12:02 | -1.32157 | -87.31285 | 33883 ft | 457 kts | 275° |
| 2026-04-29 12:03 | -1.31313 | -87.37569 | 33889 ft | 456 kts | 275° |
| 2026-04-29 12:03 | -1.30468 | -87.43846 | 33880 ft | 455 kts | 275° |
| 2026-04-29 12:04 | -1.29626 | -87.50112 | 33880 ft | 455 kts | 275° |
| 2026-04-29 12:04 | -1.28789 | -87.56331 | 33883 ft | 454 kts | 275° |
| 2026-04-29 12:05 | -1.27948 | -87.62581 | 33883 ft | 454 kts | 275° |
| 2026-04-29 12:05 | -1.27106 | -87.68837 | 33882 ft | 454 kts | 275° |
| 2026-04-29 12:06 | -1.26266 | -87.75083 | 33890 ft | 453 kts | 275° |
| 2026-04-29 12:06 | -1.25425 | -87.81325 | 33883 ft | 452 kts | 275° |
| 2026-04-29 12:07 | -1.24587 | -87.87548 | 33878 ft | 452 kts | 275° |
| 2026-04-29 12:07 | -1.23525 | -87.93702 | 33881 ft | 452 kts | 278° |
| 2026-04-29 12:08 | -1.22281 | -87.99862 | 33878 ft | 452 kts | 279° |
| 2026-04-29 12:08 | -1.21039 | -88.06019 | 33880 ft | 452 kts | 279° |
| 2026-04-29 12:09 | -1.19823 | -88.12183 | 33883 ft | 451 kts | 278° |
| 2026-04-29 12:09 | -1.18623 | -88.18334 | 33878 ft | 451 kts | 278° |
| 2026-04-29 12:10 | -1.17422 | -88.24498 | 33880 ft | 451 kts | 278° |
| 2026-04-29 12:10 | -1.16224 | -88.30649 | 33879 ft | 451 kts | 278° |
| 2026-04-29 12:11 | -1.15032 | -88.36759 | 33880 ft | 451 kts | 278° |
| 2026-04-29 12:11 | -1.13833 | -88.42908 | 33874 ft | 451 kts | 278° |
| 2026-04-29 12:12 | -1.12632 | -88.49067 | 33884 ft | 452 kts | 278° |
| 2026-04-29 12:12 | -1.11428 | -88.55236 | 33800 ft | 454 kts | 278° |
| 2026-04-29 12:13 | -1.10817 | -88.58375 | 32944 ft | 463 kts | 278° |
| 2026-04-29 12:13 | -1.10202 | -88.61528 | 32137 ft | 462 kts | 278° |
| 2026-04-29 12:13 | -1.09589 | -88.64665 | 31542 ft | 457 kts | 277° |
| 2026-04-29 12:13 | -1.08981 | -88.67769 | 30883 ft | 455 kts | 277° |
| 2026-04-29 12:14 | -1.08377 | -88.70861 | 30234 ft | 453 kts | 277° |
| 2026-04-29 12:14 | -1.07774 | -88.73947 | 29526 ft | 451 kts | 277° |
| 2026-04-29 12:14 | -1.07184 | -88.76974 | 28831 ft | 448 kts | 277° |
| 2026-04-29 12:14 | -1.06590 | -88.80019 | 28158 ft | 444 kts | 278° |
| 2026-04-29 12:15 | -1.06001 | -88.83034 | 27498 ft | 441 kts | 278° |
| 2026-04-29 12:15 | -1.05419 | -88.86018 | 26836 ft | 438 kts | 278° |
| 2026-04-29 12:15 | -1.04836 | -88.89007 | 26159 ft | 435 kts | 279° |
| 2026-04-29 12:15 | -1.04258 | -88.91971 | 25496 ft | 433 kts | 279° |
| 2026-04-29 12:16 | -1.03682 | -88.94920 | 24842 ft | 431 kts | 279° |
| 2026-04-29 12:16 | -1.03110 | -88.97855 | 24176 ft | 430 kts | 279° |
| 2026-04-29 12:16 | -1.02539 | -89.00780 | 23516 ft | 428 kts | 280° |
| 2026-04-29 12:16 | -1.01969 | -89.03700 | 22749 ft | 427 kts | 281° |
| 2026-04-29 12:17 | -1.01593 | -89.05625 | 22263 ft | 425 kts | 281° |
| 2026-04-29 12:17 | -1.01031 | -89.08507 | 21612 ft | 421 kts | 281° |
| 2026-04-29 12:17 | -1.00472 | -89.11366 | 20934 ft | 418 kts | 281° |
| 2026-04-29 12:17 | -0.99917 | -89.14212 | 20252 ft | 416 kts | 281° |
| 2026-04-29 12:18 | -0.99364 | -89.17043 | 19600 ft | 414 kts | 281° |
| 2026-04-29 12:18 | -0.98814 | -89.19856 | 18938 ft | 412 kts | 282° |
| 2026-04-29 12:18 | -0.98267 | -89.22659 | 18290 ft | 410 kts | 281° |
| 2026-04-29 12:18 | -0.97722 | -89.25448 | 17546 ft | 408 kts | 282° |
| 2026-04-29 12:19 | -0.97180 | -89.28221 | 16863 ft | 404 kts | 282° |
| 2026-04-29 12:19 | -0.96644 | -89.30967 | 16209 ft | 400 kts | 282° |
| 2026-04-29 12:19 | -0.96114 | -89.33683 | 15546 ft | 397 kts | 282° |
| 2026-04-29 12:19 | -0.95586 | -89.36384 | 14892 ft | 395 kts | 282° |
| 2026-04-29 12:20 | -0.95062 | -89.39064 | 14229 ft | 392 kts | 282° |
| 2026-04-29 12:20 | -0.94540 | -89.41737 | 13555 ft | 390 kts | 282° |
| 2026-04-29 12:20 | -0.94022 | -89.44387 | 12949 ft | 385 kts | 282° |
| 2026-04-29 12:20 | -0.93521 | -89.46954 | 12808 ft | 367 kts | 282° |
| 2026-04-29 12:21 | -0.93043 | -89.49403 | 12631 ft | 352 kts | 282° |
| 2026-04-29 12:21 | -0.92583 | -89.51759 | 12476 ft | 338 kts | 282° |
| 2026-04-29 12:21 | -0.92141 | -89.54022 | 12335 ft | 326 kts | 282° |
| 2026-04-29 12:21 | -0.91715 | -89.56199 | 12198 ft | 313 kts | 282° |
| 2026-04-29 12:22 | -0.91309 | -89.58276 | 12068 ft | 302 kts | 282° |
| 2026-04-29 12:22 | -0.90913 | -89.60301 | 11936 ft | 292 kts | 282° |
| 2026-04-29 12:22 | -0.90517 | -89.62242 | 11876 ft | 278 kts | 288° |
| 2026-04-29 12:22 | -0.89629 | -89.63861 | 11871 ft | 258 kts | 317° |
| 2026-04-29 12:23 | -0.88197 | -89.64860 | 11879 ft | 247 kts | 341° |
| 2026-04-29 12:23 | -0.86549 | -89.65214 | 11804 ft | 244 kts | 3° |
| 2026-04-29 12:23 | -0.84887 | -89.64914 | 11557 ft | 244 kts | 26° |
| 2026-04-29 12:23 | -0.83488 | -89.64000 | 11322 ft | 239 kts | 48° |
| 2026-04-29 12:24 | -0.82584 | -89.62640 | 11088 ft | 234 kts | 69° |
| 2026-04-29 12:24 | -0.82176 | -89.61109 | 10856 ft | 230 kts | 86° |
| 2026-04-29 12:24 | -0.82312 | -89.59533 | 10624 ft | 227 kts | 99° |
| 2026-04-29 12:24 | -0.82604 | -89.57989 | 10389 ft | 225 kts | 100° |
| 2026-04-29 12:25 | -0.82900 | -89.56463 | 10177 ft | 222 kts | 100° |
| 2026-04-29 12:25 | -0.83194 | -89.54957 | 10058 ft | 220 kts | 100° |
| 2026-04-29 12:25 | -0.85131 | -89.52815 | 9923 ft | 234 kts | 169° |
| 2026-04-29 12:26 | -0.86767 | -89.52973 | 9886 ft | 244 kts | 201° |
| 2026-04-29 12:26 | -0.88133 | -89.53982 | 9886 ft | 250 kts | 231° |
| 2026-04-29 12:26 | -0.89034 | -89.55475 | 9896 ft | 252 kts | 241° |
| 2026-04-29 12:26 | -0.89838 | -89.57036 | 9884 ft | 253 kts | 242° |
| 2026-04-29 12:27 | -0.90623 | -89.58621 | 9883 ft | 254 kts | 247° |
| 2026-04-29 12:27 | -0.91124 | -89.60312 | 9888 ft | 253 kts | 255° |
| 2026-04-29 12:27 | -0.91218 | -89.62057 | 9868 ft | 252 kts | 284° |
| 2026-04-29 12:27 | -0.90487 | -89.63612 | 9886 ft | 247 kts | 310° |
| 2026-04-29 12:28 | -0.89692 | -89.65113 | 9856 ft | 249 kts | 278° |
| 2026-04-29 12:28 | -0.89951 | -89.66768 | 9885 ft | 244 kts | 238° |
| 2026-04-29 12:28 | -0.91174 | -89.67904 | 9890 ft | 242 kts | 198° |
| 2026-04-29 12:28 | -0.92787 | -89.68039 | 9883 ft | 237 kts | 159° |
| 2026-04-29 12:29 | -0.94181 | -89.67238 | 9892 ft | 231 kts | 136° |
| 2026-04-29 12:29 | -0.95275 | -89.66069 | 9884 ft | 230 kts | 124° |
| 2026-04-29 12:29 | -0.96131 | -89.64723 | 9879 ft | 229 kts | 116° |
| 2026-04-29 12:29 | -0.96790 | -89.63269 | 9881 ft | 229 kts | 109° |
| 2026-04-29 12:30 | -0.97288 | -89.61758 | 9874 ft | 229 kts | 104° |
| 2026-04-29 12:30 | -0.97684 | -89.60218 | 9820 ft | 229 kts | 102° |
| 2026-04-29 12:30 | -0.98028 | -89.58661 | 9698 ft | 230 kts | 101° |
| 2026-04-29 12:30 | -0.98347 | -89.57109 | 9554 ft | 226 kts | 100° |
| 2026-04-29 12:31 | -0.98654 | -89.55575 | 9427 ft | 224 kts | 101° |
| 2026-04-29 12:31 | -0.98908 | -89.54049 | 9277 ft | 223 kts | 86° |
| 2026-04-29 12:31 | -0.98317 | -89.52654 | 9147 ft | 222 kts | 47° |
| 2026-04-29 12:31 | -0.97081 | -89.51739 | 9046 ft | 224 kts | 27° |
| 2026-04-29 12:32 | -0.95555 | -89.51356 | 8900 ft | 232 kts | 2° |
| 2026-04-29 12:32 | -0.93966 | -89.51701 | 8767 ft | 240 kts | 335° |
| 2026-04-29 12:32 | -0.92686 | -89.52787 | 8643 ft | 247 kts | 304° |
| 2026-04-29 12:32 | -0.92106 | -89.54370 | 8496 ft | 248 kts | 273° |
| 2026-04-29 12:33 | -0.92317 | -89.56066 | 8394 ft | 246 kts | 261° |
| 2026-04-29 12:33 | -0.92089 | -89.57735 | 8226 ft | 244 kts | 294° |
| 2026-04-29 12:33 | -0.91480 | -89.59307 | 8120 ft | 243 kts | 289° |
| 2026-04-29 12:33 | -0.90976 | -89.60921 | 7983 ft | 242 kts | 287° |
| 2026-04-29 12:34 | -0.90327 | -89.62444 | 7880 ft | 237 kts | 305° |
| 2026-04-29 12:34 | -0.89386 | -89.63776 | 7893 ft | 235 kts | 307° |
| 2026-04-29 12:34 | -0.88433 | -89.65115 | 7881 ft | 237 kts | 307° |
| 2026-04-29 12:34 | -0.87470 | -89.66472 | 7882 ft | 242 kts | 307° |
| 2026-04-29 12:35 | -0.86495 | -89.67851 | 7891 ft | 243 kts | 306° |
| 2026-04-29 12:35 | -0.85524 | -89.69233 | 7881 ft | 244 kts | 307° |
| 2026-04-29 12:35 | -0.84549 | -89.70622 | 7882 ft | 243 kts | 306° |
| 2026-04-29 12:35 | -0.83581 | -89.72005 | 7874 ft | 243 kts | 306° |
| 2026-04-29 12:36 | -0.82615 | -89.73388 | 7872 ft | 243 kts | 307° |
| 2026-04-29 12:36 | -0.81639 | -89.74787 | 7649 ft | 247 kts | 306° |
| 2026-04-29 12:36 | -0.80660 | -89.76191 | 7399 ft | 245 kts | 307° |
| 2026-04-29 12:36 | -0.79690 | -89.77583 | 7166 ft | 243 kts | 306° |
| 2026-04-29 12:37 | -0.78731 | -89.78960 | 6935 ft | 241 kts | 306° |
| 2026-04-29 12:37 | -0.77771 | -89.80340 | 6696 ft | 240 kts | 306° |
| 2026-04-29 12:37 | -0.76815 | -89.81712 | 6479 ft | 245 kts | 306° |
| 2026-04-29 12:37 | -0.75804 | -89.83164 | 6288 ft | 262 kts | 306° |
| 2026-04-29 12:38 | -0.74756 | -89.84667 | 6056 ft | 272 kts | 306° |
| 2026-04-29 12:38 | -0.73667 | -89.86232 | 5814 ft | 274 kts | 306° |
| 2026-04-29 12:38 | -0.72588 | -89.87786 | 5551 ft | 269 kts | 305° |
| 2026-04-29 12:38 | -0.71531 | -89.89306 | 5299 ft | 264 kts | 305° |
| 2026-04-29 12:39 | -0.70489 | -89.90803 | 5079 ft | 262 kts | 305° |
| 2026-04-29 12:39 | -0.69422 | -89.92336 | 5034 ft | 272 kts | 305° |
| 2026-04-29 12:39 | -0.68347 | -89.93882 | 4995 ft | 269 kts | 305° |
| 2026-04-29 12:39 | -0.67287 | -89.95406 | 4997 ft | 265 kts | 305° |
| 2026-04-29 12:40 | -0.66243 | -89.96908 | 4986 ft | 261 kts | 305° |
| 2026-04-29 12:40 | -0.65221 | -89.98377 | 4974 ft | 252 kts | 305° |
| 2026-04-29 12:40 | -0.64250 | -89.99774 | 4969 ft | 238 kts | 305° |
| 2026-04-29 12:40 | -0.63321 | -90.01108 | 4987 ft | 231 kts | 305° |
| 2026-04-29 12:41 | -0.62411 | -90.02417 | 4982 ft | 228 kts | 305° |
| 2026-04-29 12:41 | -0.61510 | -90.03712 | 4971 ft | 228 kts | 304° |
| 2026-04-29 12:41 | -0.60585 | -90.05040 | 4739 ft | 236 kts | 304° |
| 2026-04-29 12:41 | -0.59641 | -90.06398 | 4499 ft | 239 kts | 305° |
| 2026-04-29 12:42 | -0.58696 | -90.07757 | 4263 ft | 237 kts | 304° |
| 2026-04-29 12:42 | -0.57756 | -90.09108 | 4068 ft | 234 kts | 304° |
| 2026-04-29 12:42 | -0.56847 | -90.10414 | 3994 ft | 224 kts | 304° |
| 2026-04-29 12:42 | -0.55983 | -90.11656 | 3974 ft | 211 kts | 304° |
| 2026-04-29 12:43 | -0.55151 | -90.12853 | 4005 ft | 208 kts | 304° |
| 2026-04-29 12:43 | -0.54332 | -90.14030 | 3957 ft | 205 kts | 304° |
| 2026-04-29 12:43 | -0.53540 | -90.15168 | 3843 ft | 193 kts | 304° |
| 2026-04-29 12:43 | -0.52794 | -90.16239 | 3655 ft | 185 kts | 303° |
| 2026-04-29 12:44 | -0.52062 | -90.17292 | 3355 ft | 185 kts | 303° |
| 2026-04-29 12:44 | -0.51328 | -90.18348 | 3087 ft | 184 kts | 303° |
| 2026-04-29 12:44 | -0.50602 | -90.19392 | 2824 ft | 184 kts | 303° |
| 2026-04-29 12:44 | -0.49879 | -90.20431 | 2633 ft | 177 kts | 302° |
| 2026-04-29 12:45 | -0.49200 | -90.21406 | 2520 ft | 173 kts | 302° |
| 2026-04-29 12:45 | -0.48504 | -90.22409 | 2523 ft | 176 kts | 302° |
| 2026-04-29 12:45 | -0.47800 | -90.23421 | 2496 ft | 178 kts | 302° |
| 2026-04-29 12:45 | -0.47103 | -90.24421 | 2488 ft | 174 kts | 302° |
| 2026-04-29 12:46 | -0.46410 | -90.25417 | 2500 ft | 175 kts | 301° |
| 2026-04-29 12:46 | -0.46001 | -90.26521 | 2504 ft | 166 kts | 272° |
| 2026-04-29 12:46 | -0.45859 | -90.27683 | 2501 ft | 171 kts | 273° |
| 2026-04-29 12:46 | -0.45723 | -90.28863 | 2507 ft | 171 kts | 272° |
| 2026-04-29 12:47 | -0.45586 | -90.30037 | 2485 ft | 169 kts | 272° |
| 2026-04-29 12:47 | -0.45449 | -90.31198 | 2479 ft | 168 kts | 272° |
| 2026-04-29 12:47 | -0.45369 | -90.32358 | 2479 ft | 168 kts | 256° |
| 2026-04-29 12:47 | -0.45912 | -90.33293 | 2498 ft | 155 kts | 210° |
| 2026-04-29 12:48 | -0.46931 | -90.33509 | 2499 ft | 154 kts | 164° |
| 2026-04-29 12:48 | -0.47783 | -90.32896 | 2516 ft | 157 kts | 126° |
| 2026-04-29 12:48 | -0.48374 | -90.31968 | 2495 ft | 159 kts | 123° |
| 2026-04-29 12:48 | -0.49014 | -90.31088 | 2468 ft | 153 kts | 146° |
| 2026-04-29 12:49 | -0.50005 | -90.30773 | 2514 ft | 154 kts | 171° |
| 2026-04-29 12:49 | -0.51085 | -90.30658 | 2501 ft | 156 kts | 172° |
| 2026-04-29 12:49 | -0.52147 | -90.30765 | 2472 ft | 158 kts | 206° |
| 2026-04-29 12:49 | -0.52838 | -90.31603 | 2494 ft | 165 kts | 252° |
| 2026-04-29 12:50 | -0.52730 | -90.32761 | 2486 ft | 178 kts | 295° |
| 2026-04-29 12:50 | -0.51947 | -90.33709 | 2495 ft | 178 kts | 312° |
| 2026-04-29 12:50 | -0.51085 | -90.34577 | 2488 ft | 175 kts | 312° |
| 2026-04-29 12:50 | -0.50233 | -90.35423 | 2369 ft | 171 kts | 312° |
| 2026-04-29 12:51 | -0.49373 | -90.36270 | 2030 ft | 174 kts | 313° |
| 2026-04-29 12:51 | -0.48509 | -90.37127 | 1676 ft | 176 kts | 313° |
| 2026-04-29 12:51 | -0.47628 | -90.38004 | 1554 ft | 182 kts | 317° |
| 2026-04-29 12:51 | -0.46642 | -90.38787 | 1513 ft | 178 kts | 332° |
| 2026-04-29 12:52 | -0.45469 | -90.38942 | 1497 ft | 174 kts | 18° |
| 2026-04-29 12:52 | -0.44502 | -90.38260 | 1497 ft | 173 kts | 62° |
| 2026-04-29 12:52 | -0.44271 | -90.37163 | 1497 ft | 164 kts | 104° |
| 2026-04-29 12:52 | -0.44865 | -90.36246 | 1505 ft | 156 kts | 142° |
| 2026-04-29 12:53 | -0.45718 | -90.35579 | 1504 ft | 158 kts | 142° |
| 2026-04-29 12:53 | -0.46591 | -90.34906 | 1506 ft | 159 kts | 142° |
| 2026-04-29 12:53 | -0.47469 | -90.34228 | 1494 ft | 160 kts | 142° |
| 2026-04-29 12:53 | -0.48349 | -90.33546 | 1479 ft | 160 kts | 143° |
| 2026-04-29 12:54 | -0.49225 | -90.32861 | 1491 ft | 159 kts | 143° |
| 2026-04-29 12:54 | -0.50095 | -90.32174 | 1481 ft | 160 kts | 142° |
| 2026-04-29 12:54 | -0.50926 | -90.31443 | 1476 ft | 161 kts | 125° |
| 2026-04-29 12:54 | -0.51152 | -90.30383 | 1502 ft | 161 kts | 80° |
| 2026-04-29 12:55 | -0.50687 | -90.29384 | 1462 ft | 158 kts | 64° |
| 2026-04-29 12:55 | -0.50091 | -90.28402 | 1550 ft | 174 kts | 62° |
| 2026-04-29 12:55 | -0.49448 | -90.27382 | 1478 ft | 169 kts | 62° |
| 2026-04-29 12:55 | -0.48832 | -90.26409 | 1476 ft | 165 kts | 62° |
| 2026-04-29 12:56 | -0.48289 | -90.25406 | 1477 ft | 162 kts | 82° |
| 2026-04-29 12:56 | -0.48445 | -90.24372 | 1514 ft | 151 kts | 128° |
| 2026-04-29 12:56 | -0.49304 | -90.23826 | 1513 ft | 151 kts | 174° |
| 2026-04-29 12:56 | -0.50282 | -90.24152 | 1453 ft | 162 kts | 232° |
| 2026-04-29 12:57 | -0.50281 | -90.25246 | 1410 ft | 170 kts | 307° |
| 2026-04-29 12:57 | -0.49236 | -90.25684 | 1200 ft | 159 kts | 358° |
| 2026-04-29 12:57 | -0.48235 | -90.26061 | 854 ft | 152 kts | 324° |
| 2026-04-29 12:57 | -0.47397 | -90.26658 | 720 ft | 145 kts | 322° |
| 2026-04-29 12:58 | -0.46583 | -90.27268 | 750 ft | 148 kts | 320° |
| 2026-04-29 12:58 | -0.45785 | -90.27900 | 706 ft | 147 kts | 317° |
| 2026-04-29 12:58 | -0.45024 | -90.28557 | 530 ft | 144 kts | 317° |
| 2026-04-29 12:58 | -0.44115 | -90.28849 | 410 ft | 141 kts | 15° |
| 2026-04-29 12:59 | -0.43445 | -90.28177 | 576 ft | 149 kts | 97° |
| 2026-04-29 12:59 | -0.44083 | -90.27498 | 279 ft | 143 kts | 150° |
| 2026-04-29 12:59 | -0.44838 | -90.26978 | 166 ft | 115 kts | 142° |
| 2026-04-29 12:59 | -0.45169 | -90.26732 | 176 ft | 6 kts | 129° |
| 2026-04-29 13:00 | -0.45179 | -90.26713 | 176 ft | 5 kts | 137° |
| 2026-04-29 13:00 | -0.45190 | -90.26732 | 176 ft | 9 kts | 286° |
| 2026-04-29 13:00 | -0.45114 | -90.26790 | 174 ft | 17 kts | 332° |
| 2026-04-29 13:00 | -0.45002 | -90.26858 | 172 ft | 20 kts | 324° |
| 2026-04-29 13:01 | -0.44889 | -90.26940 | 169 ft | 21 kts | 324° |
| 2026-04-29 13:01 | -0.44767 | -90.27029 | 163 ft | 22 kts | 323° |
| 2026-04-29 13:01 | -0.44688 | -90.27083 | 160 ft | 9 kts | 344° |
| 2026-04-29 13:01 | -0.44647 | -90.27046 | 159 ft | 8 kts | 56° |
| 2026-04-29 13:02 | -0.44646 | -90.26994 | 160 ft | 7 kts | 101° |
| 2026-04-29 13:02 | -0.44635 | -90.26963 | 161 ft | 3 kts | 57° |
| 2026-04-29 13:02 | -0.44634 | -90.26962 | 161 ft | 0 kts | 57° |